createdAt,value
2023-03-04T00:00:28.868Z,14.82
2023-03-04T00:02:55.916Z,14.65
2023-03-04T00:05:23.106Z,15.20
2023-03-04T00:07:50.293Z,14.57
2023-03-04T00:10:17.542Z,16.08
2023-03-04T00:12:44.566Z,17.23
2023-03-04T00:15:11.764Z,15.32
2023-03-04T00:17:38.825Z,17.33
2023-03-04T00:20:06.479Z,15.57
2023-03-04T00:22:33.835Z,15.38
2023-03-04T00:25:00.821Z,15.73
2023-03-04T00:27:27.886Z,16.73
2023-03-04T00:29:55.815Z,16.00
2023-03-04T00:32:23.250Z,15.32
2023-03-04T00:34:50.290Z,15.63
2023-03-04T00:37:17.456Z,14.70
2023-03-04T00:39:44.482Z,14.73
2023-03-04T00:42:11.526Z,14.98
2023-03-04T00:44:39.172Z,15.18
2023-03-04T00:47:06.299Z,15.65
2023-03-04T00:49:33.366Z,14.52
2023-03-04T00:52:00.418Z,16.58
2023-03-04T00:54:27.548Z,15.68
2023-03-04T00:56:54.630Z,16.45
2023-03-04T00:59:21.635Z,14.35
2023-03-04T01:01:48.673Z,14.60
2023-03-04T01:04:17.774Z,14.32
2023-03-04T01:06:44.810Z,14.93
2023-03-04T01:09:12.751Z,16.38
2023-03-04T01:11:39.777Z,15.27
2023-03-04T01:14:06.851Z,13.80
2023-03-04T01:16:34.475Z,17.52
2023-03-04T01:19:01.865Z,14.45
2023-03-04T01:21:28.941Z,15.38
2023-03-04T01:23:56.084Z,15.07
2023-03-04T01:26:23.139Z,16.08
2023-03-04T01:28:50.418Z,16.40
2023-03-04T01:31:17.556Z,16.10
2023-03-04T01:33:44.769Z,16.17
2023-03-04T01:36:11.822Z,15.38
2023-03-04T01:38:38.836Z,15.35
2023-03-04T01:41:07.426Z,15.95
2023-03-04T01:43:36.572Z,16.17
2023-03-04T01:46:04.658Z,14.63
2023-03-04T01:48:37.038Z,16.05
2023-03-04T01:51:06.170Z,15.82
2023-03-04T01:53:33.865Z,15.85
2023-03-04T01:56:10.756Z,15.52
2023-03-04T01:58:37.906Z,14.98
2023-03-04T02:01:04.956Z,16.17
2023-03-04T02:03:32.039Z,15.20
2023-03-04T02:05:59.120Z,14.55
2023-03-04T02:08:26.139Z,15.60
2023-03-04T02:10:54.085Z,16.05
2023-03-04T02:13:21.422Z,13.45
2023-03-04T02:15:48.650Z,14.15
2023-03-04T02:18:22.675Z,15.30
2023-03-04T02:21:02.113Z,15.05
2023-03-04T02:23:58.577Z,15.27
2023-03-04T02:26:31.049Z,14.93
2023-03-04T02:29:00.055Z,15.25
2023-03-04T02:31:34.942Z,13.00
2023-03-04T02:34:05.345Z,13.88
2023-03-04T02:36:33.023Z,13.95
2023-03-04T02:39:21.186Z,14.63
2023-03-04T02:41:52.089Z,13.52
2023-03-04T02:44:21.541Z,12.10
2023-03-04T02:46:49.852Z,11.35
2023-03-04T02:49:17.806Z,12.30
2023-03-04T02:51:44.921Z,10.52
2023-03-04T02:54:16.579Z,10.40
2023-03-04T02:56:52.417Z,10.23
2023-03-04T02:59:22.847Z,9.57
2023-03-04T03:01:51.155Z,9.40
2023-03-04T03:04:20.085Z,8.45
2023-03-04T03:06:47.324Z,9.32
2023-03-04T03:09:15.334Z,8.93
2023-03-04T03:11:42.544Z,9.07
2023-03-04T03:14:09.945Z,8.20
2023-03-04T03:16:37.086Z,9.38
2023-03-04T03:19:05.351Z,8.40
2023-03-04T03:21:34.152Z,9.68
2023-03-04T03:24:01.160Z,9.55
2023-03-04T03:26:29.282Z,7.85
2023-03-04T03:28:56.300Z,9.50
2023-03-04T03:31:23.420Z,9.60
2023-03-04T03:33:50.517Z,9.55
2023-03-04T03:36:17.642Z,8.48
2023-03-04T03:38:44.664Z,9.35
2023-03-04T03:41:11.664Z,8.80
2023-03-04T03:43:38.648Z,8.65
2023-03-04T03:46:05.873Z,8.60
2023-03-04T03:48:32.960Z,8.52
2023-03-04T03:50:59.974Z,8.43
2023-03-04T03:53:27.033Z,9.45
2023-03-04T03:55:54.061Z,10.02
2023-03-04T03:58:21.666Z,8.90
2023-03-04T04:00:48.745Z,8.20
2023-03-04T04:03:16.971Z,8.68
2023-03-04T04:05:44.119Z,7.25
2023-03-04T04:08:14.121Z,8.68
2023-03-04T04:10:41.704Z,7.75
2023-03-04T04:13:09.611Z,7.18
2023-03-04T04:15:38.643Z,6.95
2023-03-04T04:18:06.784Z,7.35
2023-03-04T04:20:34.352Z,7.13
2023-03-04T04:23:02.035Z,7.25
2023-03-04T04:25:29.481Z,7.05
2023-03-04T04:27:56.490Z,7.88
2023-03-04T04:30:23.587Z,7.00
2023-03-04T04:32:50.767Z,5.97
2023-03-04T04:35:18.032Z,6.18
2023-03-04T04:37:45.164Z,6.03
2023-03-04T04:40:12.930Z,6.20
2023-03-04T04:42:40.005Z,6.32
2023-03-04T04:45:07.903Z,6.78
2023-03-04T04:47:34.910Z,6.90
2023-03-04T04:50:02.197Z,5.35
2023-03-04T04:52:29.347Z,5.38
2023-03-04T04:54:56.418Z,4.43
2023-03-04T04:57:23.516Z,6.68
2023-03-04T04:59:50.534Z,4.90
2023-03-04T05:02:17.615Z,6.85
2023-03-04T05:04:44.611Z,5.53
2023-03-04T05:07:11.650Z,5.95
2023-03-04T05:09:38.721Z,6.00
2023-03-04T05:12:05.913Z,5.07
2023-03-04T05:14:32.996Z,5.88
2023-03-04T05:17:04.304Z,7.20
2023-03-04T05:19:31.348Z,5.25
2023-03-04T05:22:54.385Z,6.43
2023-03-04T05:25:21.633Z,6.00
2023-03-04T05:27:48.672Z,6.00
2023-03-04T05:30:15.716Z,6.55
2023-03-04T05:32:42.860Z,5.53
2023-03-04T05:35:09.920Z,6.13
2023-03-04T05:37:36.948Z,6.07
2023-03-04T05:40:05.165Z,5.78
2023-03-04T05:42:32.177Z,5.60
2023-03-04T05:44:59.178Z,5.95
2023-03-04T05:47:26.207Z,5.10
2023-03-04T05:49:54.422Z,5.25
2023-03-04T05:52:21.524Z,4.68
2023-03-04T05:54:48.518Z,6.07
2023-03-04T05:57:15.574Z,5.18
2023-03-04T05:59:42.629Z,5.75
2023-03-04T06:02:09.650Z,4.63
2023-03-04T06:04:36.726Z,5.68
2023-03-04T06:07:03.777Z,5.25
2023-03-04T06:09:30.762Z,6.63
2023-03-04T06:11:57.770Z,6.95
2023-03-04T06:14:24.877Z,5.07
2023-03-04T06:16:52.220Z,4.75
2023-03-04T06:19:19.367Z,5.53
2023-03-04T06:21:46.466Z,6.07
2023-03-04T06:24:13.714Z,5.03
2023-03-04T06:26:40.796Z,4.32
2023-03-04T06:29:07.822Z,5.13
2023-03-04T06:31:34.930Z,5.05
2023-03-04T06:34:02.009Z,4.75
2023-03-04T06:36:29.038Z,4.80
2023-03-04T06:38:56.097Z,4.93
2023-03-04T06:41:23.088Z,5.05
2023-03-04T06:43:50.081Z,5.53
2023-03-04T06:46:17.123Z,3.80
2023-03-04T06:48:44.116Z,4.82
2023-03-04T06:51:13.857Z,3.70
2023-03-04T06:53:41.797Z,3.53
2023-03-04T06:56:10.718Z,3.50
2023-03-04T06:58:37.970Z,4.63
2023-03-04T07:01:16.641Z,4.30
2023-03-04T07:03:44.565Z,3.85
2023-03-04T07:06:13.060Z,3.85
2023-03-04T07:08:40.360Z,4.18
2023-03-04T07:11:08.222Z,4.00
2023-03-04T07:13:38.211Z,6.13
2023-03-04T07:16:10.290Z,4.88
2023-03-04T07:18:38.009Z,3.63
2023-03-04T07:21:06.685Z,3.78
2023-03-04T07:23:35.149Z,3.38
2023-03-04T07:26:03.317Z,3.75
2023-03-04T07:28:30.451Z,3.88
2023-03-04T07:30:57.615Z,3.40
2023-03-04T07:33:24.631Z,4.03
2023-03-04T07:35:59.753Z,3.55
2023-03-04T07:38:26.808Z,4.00
2023-03-04T07:40:58.291Z,4.45
2023-03-04T07:43:25.552Z,4.68
2023-03-04T07:45:52.604Z,4.32
2023-03-04T07:48:19.602Z,2.25
2023-03-04T07:50:46.656Z,2.60
2023-03-04T07:53:13.641Z,2.70
2023-03-04T07:55:40.645Z,2.58
2023-03-04T07:58:07.615Z,3.10
2023-03-04T08:00:34.665Z,2.75
2023-03-04T08:03:01.662Z,3.00
2023-03-04T08:05:28.690Z,2.80
2023-03-04T08:07:57.895Z,3.13
2023-03-04T08:10:24.943Z,3.83
2023-03-04T08:12:52.029Z,3.13
2023-03-04T08:15:19.030Z,2.75
2023-03-04T08:17:46.008Z,2.35
2023-03-04T08:20:13.159Z,3.38
2023-03-04T08:22:40.237Z,3.47
2023-03-04T08:25:07.552Z,2.45
2023-03-04T08:27:34.757Z,2.70
2023-03-04T08:30:01.746Z,2.78
2023-03-04T08:32:28.971Z,3.03
2023-03-04T08:34:56.891Z,3.78
2023-03-04T08:37:24.021Z,2.13
2023-03-04T08:39:51.128Z,2.53
2023-03-04T08:42:18.151Z,2.53
2023-03-04T08:44:45.141Z,2.40
2023-03-04T08:47:12.424Z,2.60
2023-03-04T08:49:39.441Z,3.35
2023-03-04T08:52:06.715Z,2.17
2023-03-04T08:54:33.848Z,1.73
2023-03-04T08:57:00.860Z,1.40
2023-03-04T08:59:27.845Z,1.60
2023-03-04T09:01:54.861Z,1.90
2023-03-04T09:04:21.960Z,1.58
2023-03-04T09:06:53.897Z,2.60
2023-03-04T09:09:21.099Z,1.75
2023-03-04T09:11:48.189Z,1.60
2023-03-04T09:14:15.220Z,1.60
2023-03-04T09:16:42.226Z,2.20
2023-03-04T09:19:09.372Z,2.20
2023-03-04T09:21:36.658Z,1.30
2023-03-04T09:24:03.839Z,1.48
2023-03-04T09:26:30.911Z,1.40
2023-03-04T09:29:00.504Z,2.13
2023-03-04T09:31:28.581Z,1.25
2023-03-04T09:33:57.840Z,1.30
2023-03-04T09:36:24.900Z,1.45
2023-03-04T09:38:51.933Z,3.20
2023-03-04T09:41:24.178Z,2.20
2023-03-04T09:43:54.244Z,1.70
2023-03-04T09:46:38.720Z,1.70
2023-03-04T09:49:07.537Z,1.23
2023-03-04T09:51:56.790Z,1.42
2023-03-04T09:54:37.357Z,1.40
2023-03-04T09:57:42.161Z,1.70
2023-03-04T10:00:25.906Z,1.20
2023-03-04T10:03:19.500Z,1.05
2023-03-04T10:05:57.497Z,4.80
2023-03-04T10:08:49.566Z,1.77
2023-03-04T10:11:24.744Z,1.38
2023-03-04T10:14:00.247Z,1.13
2023-03-04T10:16:37.390Z,1.27
2023-03-04T10:19:29.210Z,0.88
2023-03-04T10:21:59.612Z,0.70
2023-03-04T10:24:29.251Z,2.38
2023-03-04T10:27:02.559Z,3.10
2023-03-04T10:29:32.623Z,1.33
2023-03-04T10:31:59.899Z,1.50
2023-03-04T10:34:27.031Z,1.80
2023-03-04T10:37:01.259Z,2.58
2023-03-04T10:39:32.010Z,1.98
2023-03-04T10:42:05.062Z,1.70
2023-03-04T10:44:34.618Z,1.52
2023-03-04T10:47:01.801Z,1.40
2023-03-04T10:49:29.986Z,1.63
2023-03-04T10:52:23.648Z,1.92
2023-03-04T10:54:54.527Z,1.05
2023-03-04T10:57:29.050Z,1.73
2023-03-04T11:00:01.820Z,1.48
2023-03-04T11:02:30.850Z,1.45
2023-03-04T11:05:23.875Z,1.63
2023-03-04T11:10:40.361Z,1.45
2023-03-04T11:13:17.363Z,1.58
2023-03-04T11:15:50.446Z,1.63
2023-03-04T11:18:24.112Z,1.67
2023-03-04T11:20:51.260Z,1.90
2023-03-04T11:23:39.691Z,2.05
2023-03-04T11:26:12.545Z,1.10
2023-03-04T11:28:53.629Z,0.98
2023-03-04T11:31:27.273Z,0.93
2023-03-04T11:34:02.939Z,1.00
2023-03-04T11:37:03.473Z,0.90
2023-03-04T11:39:47.474Z,0.82
2023-03-04T11:42:39.886Z,1.20
2023-03-04T11:45:29.561Z,1.92
2023-03-04T11:48:17.765Z,0.82
2023-03-04T11:50:53.261Z,0.90
2023-03-04T11:53:23.382Z,1.30
2023-03-04T11:56:11.390Z,1.05
2023-03-04T11:59:01.960Z,0.77
2023-03-04T12:01:43.543Z,0.90
2023-03-04T12:04:35.353Z,0.68
2023-03-04T12:07:50.480Z,0.60
2023-03-04T12:14:41.326Z,1.10
2023-03-04T12:18:17.378Z,1.23
2023-03-04T12:21:10.143Z,1.65
2023-03-04T12:24:06.552Z,1.23
2023-03-04T12:26:55.085Z,1.05
2023-03-04T12:29:39.556Z,1.00
2023-03-04T12:32:31.587Z,1.27
2023-03-04T12:35:27.851Z,1.35
2023-03-04T12:38:12.416Z,1.30
2023-03-04T12:40:58.197Z,1.42
2023-03-04T12:43:49.722Z,2.33
2023-03-04T12:46:27.538Z,1.40
2023-03-04T12:49:19.602Z,1.13
2023-03-04T12:52:02.848Z,1.58
2023-03-04T12:54:37.151Z,2.70
2023-03-04T12:57:12.178Z,2.22
2023-03-04T12:59:52.014Z,2.00
2023-03-04T13:02:35.854Z,1.77
2023-03-04T13:05:34.105Z,1.23
2023-03-04T13:08:22.566Z,1.85
2023-03-04T13:10:51.350Z,2.00
2023-03-04T13:13:40.179Z,1.67
2023-03-04T13:16:32.467Z,1.63
2023-03-04T13:18:59.676Z,1.45
2023-03-04T13:21:31.500Z,2.15
2023-03-04T13:24:21.652Z,1.90
2023-03-04T13:26:48.772Z,1.60
2023-03-04T13:29:18.791Z,1.70
2023-03-04T13:31:57.745Z,1.02
2023-03-04T13:34:53.916Z,1.98
2023-03-04T13:37:26.892Z,2.08
2023-03-04T13:40:27.346Z,1.58
2023-03-04T13:42:55.606Z,1.50
2023-03-04T13:45:36.667Z,1.13
2023-03-04T13:48:21.434Z,1.75
2023-03-04T13:50:50.546Z,1.98
2023-03-04T13:53:30.979Z,1.60
2023-03-04T13:56:10.061Z,1.67
2023-03-04T13:58:38.091Z,1.45
2023-03-04T14:01:06.882Z,1.50
2023-03-04T14:03:35.436Z,1.33
2023-03-04T14:06:29.315Z,1.15
2023-03-04T14:08:57.332Z,1.30
2023-03-04T14:11:33.975Z,1.90
2023-03-04T14:14:05.654Z,1.70
2023-03-04T14:16:39.838Z,1.70
2023-03-04T14:19:13.866Z,1.83
2023-03-04T14:21:45.118Z,2.00
2023-03-04T14:24:16.009Z,2.05
2023-03-04T14:26:43.225Z,2.17
2023-03-04T14:29:27.939Z,2.72
2023-03-04T14:31:56.079Z,2.97
2023-03-04T14:34:32.285Z,4.15
2023-03-04T14:37:00.159Z,5.78
2023-03-04T14:39:30.566Z,4.03
2023-03-04T14:42:02.021Z,3.13
2023-03-04T14:44:36.056Z,3.25
2023-03-04T14:47:26.538Z,3.75
2023-03-04T14:49:53.914Z,5.40
2023-03-04T14:52:35.189Z,4.85
2023-03-04T14:55:14.105Z,6.22
2023-03-04T14:57:43.266Z,6.80
2023-03-04T15:00:22.289Z,6.03
2023-03-04T15:02:55.744Z,6.35
2023-03-04T15:05:34.600Z,5.88
2023-03-04T15:08:05.202Z,7.05
2023-03-04T15:10:37.964Z,8.20
2023-03-04T15:13:07.721Z,6.38
2023-03-04T15:16:01.104Z,8.13
2023-03-04T15:18:30.156Z,8.30
2023-03-04T15:21:20.619Z,7.43
2023-03-04T15:23:47.693Z,7.93
2023-03-04T15:26:14.758Z,7.93
2023-03-04T15:28:42.882Z,7.97
2023-03-04T15:31:18.083Z,8.70
2023-03-04T15:33:45.980Z,8.48
2023-03-04T15:36:16.349Z,8.13
2023-03-04T15:38:52.625Z,9.85
2023-03-04T15:41:26.915Z,10.00
2023-03-04T15:43:54.580Z,9.82
2023-03-04T15:46:22.121Z,9.18
2023-03-04T15:48:49.388Z,9.70
2023-03-04T15:51:22.071Z,10.15
2023-03-04T15:53:51.887Z,11.38
2023-03-04T15:56:24.349Z,11.50
2023-03-04T15:58:56.617Z,10.68
2023-03-04T16:01:24.572Z,11.35
2023-03-04T16:03:53.522Z,12.73
2023-03-04T16:06:23.686Z,13.85
2023-03-04T16:08:52.071Z,13.07
2023-03-04T16:11:30.837Z,13.13
2023-03-04T16:13:58.096Z,13.15
2023-03-04T16:16:25.364Z,14.02
2023-03-04T16:18:52.558Z,12.48
2023-03-04T16:21:23.189Z,13.90
2023-03-04T16:23:52.414Z,13.38
2023-03-04T16:26:22.853Z,13.15
2023-03-04T16:28:51.051Z,12.05
2023-03-04T16:31:19.775Z,13.13
2023-03-04T16:33:47.185Z,12.35
2023-03-04T16:36:23.790Z,13.50
2023-03-04T16:38:52.205Z,11.85
2023-03-04T16:41:24.901Z,11.38
2023-03-04T16:43:51.896Z,12.07
2023-03-04T16:46:18.936Z,12.65
2023-03-04T16:48:47.683Z,13.13
2023-03-04T16:51:18.232Z,12.02
2023-03-04T16:53:49.209Z,11.55
2023-03-04T16:56:17.784Z,10.95
2023-03-04T16:58:45.982Z,11.73
2023-03-04T17:01:17.617Z,11.85
2023-03-04T17:03:44.975Z,11.27
2023-03-04T17:06:13.333Z,12.20
2023-03-04T17:08:40.636Z,10.55
2023-03-04T17:11:08.249Z,11.90
2023-03-04T17:17:42.588Z,11.23
2023-03-04T17:20:13.248Z,11.32
2023-03-04T17:22:40.394Z,9.90
2023-03-04T17:25:08.182Z,10.68
2023-03-04T17:27:35.800Z,8.80
2023-03-04T17:30:05.657Z,8.23
2023-03-04T17:32:33.178Z,7.47
2023-03-04T17:35:00.369Z,6.70
2023-03-04T17:37:27.474Z,6.28
2023-03-04T17:39:54.548Z,5.82
2023-03-04T17:42:21.704Z,5.80
2023-03-04T17:44:54.795Z,6.07
2023-03-04T17:47:22.549Z,5.07
2023-03-04T17:49:50.692Z,5.72
2023-03-04T17:52:18.994Z,5.90
2023-03-04T17:54:46.731Z,4.72
2023-03-04T17:57:14.191Z,4.80
2023-03-04T17:59:41.406Z,4.57
2023-03-04T18:02:14.245Z,4.18
2023-03-04T18:04:42.505Z,4.88
2023-03-04T18:07:09.542Z,4.55
2023-03-04T18:09:36.574Z,5.57
2023-03-04T18:12:06.876Z,4.57
2023-03-04T18:14:34.019Z,5.45
2023-03-04T18:17:01.059Z,5.35
2023-03-04T18:19:28.268Z,4.53
2023-03-04T18:21:55.947Z,5.43
2023-03-04T18:24:23.506Z,4.85
2023-03-04T18:26:50.620Z,4.72
2023-03-04T18:29:17.654Z,4.18
2023-03-04T18:31:44.821Z,5.47
2023-03-04T18:34:11.869Z,4.50
2023-03-04T18:36:39.306Z,3.63
2023-03-04T18:39:07.405Z,3.20
2023-03-04T18:41:34.875Z,2.60
2023-03-04T18:44:02.035Z,4.38
2023-03-04T18:46:38.216Z,4.35
2023-03-04T18:49:08.854Z,3.85
2023-03-04T18:51:36.327Z,3.28
2023-03-04T18:54:03.472Z,3.00
2023-03-04T18:56:38.106Z,3.75
2023-03-04T18:59:08.614Z,3.08
2023-03-04T19:01:36.796Z,3.05
2023-03-04T19:04:05.571Z,2.47
2023-03-04T19:06:34.077Z,2.92
2023-03-04T19:09:01.717Z,2.65
2023-03-04T19:11:29.882Z,3.03
2023-03-04T19:13:57.158Z,2.63
2023-03-04T19:20:40.576Z,2.80
2023-03-04T19:33:49.576Z,3.72
2023-03-04T19:36:16.604Z,3.17
2023-03-04T19:38:43.981Z,3.42
2023-03-04T19:41:16.066Z,3.20
2023-03-04T19:43:43.243Z,2.85
2023-03-04T19:46:10.726Z,3.55
2023-03-04T19:48:39.492Z,3.72
2023-03-04T19:51:35.969Z,3.45
2023-03-04T19:54:03.402Z,3.95
2023-03-04T19:56:30.538Z,4.32
2023-03-04T19:58:57.751Z,3.60
2023-03-04T20:01:28.221Z,3.58
2023-03-04T20:03:57.786Z,3.80
2023-03-04T20:06:26.966Z,3.55
2023-03-04T20:08:59.871Z,3.53
2023-03-04T20:11:28.189Z,5.05
2023-03-04T20:13:58.213Z,3.40
2023-03-04T20:16:25.914Z,3.95
2023-03-04T20:18:53.306Z,3.25
2023-03-04T20:21:20.658Z,3.58
2023-03-04T20:23:47.717Z,3.50
2023-03-04T20:26:14.834Z,3.72
2023-03-04T20:28:51.111Z,3.30
2023-03-04T20:31:27.114Z,2.85
2023-03-04T20:33:55.883Z,3.30
2023-03-04T20:36:25.912Z,2.53
2023-03-04T20:39:02.107Z,1.90
2023-03-04T20:41:30.854Z,2.35
2023-03-04T20:43:58.196Z,2.25
2023-03-04T20:46:42.965Z,2.50
2023-03-04T20:49:16.428Z,1.48
2023-03-04T20:51:43.687Z,2.10
2023-03-04T20:54:11.235Z,2.47
2023-03-04T20:56:39.014Z,1.75
2023-03-04T20:59:08.886Z,1.55
2023-03-04T21:01:39.302Z,1.70
2023-03-04T21:04:07.093Z,1.90
2023-03-04T21:06:34.355Z,1.50
2023-03-04T21:09:04.213Z,1.77
2023-03-04T21:11:31.595Z,2.17
2023-03-04T21:13:58.777Z,1.38
2023-03-04T21:16:29.952Z,1.65
2023-03-04T21:18:57.112Z,1.30
2023-03-04T21:21:27.069Z,1.50
2023-03-04T21:23:55.866Z,1.35
2023-03-04T21:26:23.734Z,1.33
2023-03-04T21:32:57.671Z,1.15
2023-03-04T21:35:24.828Z,1.63
2023-03-04T21:37:51.984Z,3.20
2023-03-04T21:40:19.150Z,2.53
2023-03-04T21:42:46.557Z,2.63
2023-03-04T21:45:13.619Z,1.95
2023-03-04T21:47:40.634Z,2.05
2023-03-04T21:50:08.338Z,2.17
2023-03-04T21:52:35.544Z,2.38
2023-03-04T21:55:02.595Z,3.13
2023-03-04T21:57:29.648Z,1.80
2023-03-04T21:59:56.788Z,2.20
2023-03-04T22:02:24.128Z,2.08
2023-03-04T22:04:51.264Z,2.80
2023-03-04T22:07:18.278Z,2.13
2023-03-04T22:09:45.573Z,2.20
2023-03-04T22:12:14.316Z,1.83
2023-03-04T22:14:41.492Z,2.00
2023-03-04T22:17:08.581Z,2.65
2023-03-04T22:19:35.709Z,1.90
2023-03-04T22:22:02.771Z,1.60
2023-03-04T22:24:29.760Z,1.95
2023-03-04T22:26:57.580Z,2.75
2023-03-04T22:29:24.601Z,2.15
2023-03-04T22:31:51.772Z,2.58
2023-03-04T22:34:18.895Z,2.38
2023-03-04T22:36:47.288Z,2.00
2023-03-04T22:39:16.794Z,3.08
2023-03-04T22:41:44.354Z,3.35
2023-03-04T22:44:11.392Z,2.55
2023-03-04T22:46:39.132Z,3.58
2023-03-04T22:49:09.837Z,3.38
2023-03-04T22:51:38.205Z,2.40
2023-03-04T22:54:05.284Z,2.35
2023-03-04T22:56:32.887Z,2.17
2023-03-04T22:58:59.975Z,2.75
2023-03-04T23:01:27.047Z,1.95
2023-03-04T23:03:54.152Z,1.50
2023-03-04T23:06:25.159Z,2.22
2023-03-04T23:08:52.568Z,1.95
2023-03-04T23:11:23.357Z,2.22
2023-03-04T23:13:50.735Z,2.65
2023-03-04T23:16:19.075Z,1.80
2023-03-04T23:18:47.587Z,2.13
2023-03-04T23:21:20.863Z,2.10
2023-03-04T23:23:48.407Z,2.17
2023-03-04T23:26:18.691Z,3.25
2023-03-04T23:28:46.134Z,2.78
2023-03-04T23:31:16.680Z,2.53
2023-03-04T23:33:44.572Z,2.03
2023-03-04T23:36:15.216Z,1.85
2023-03-04T23:38:44.710Z,2.25
2023-03-04T23:41:14.340Z,1.60
2023-03-04T23:43:41.372Z,1.77
2023-03-04T23:46:11.751Z,1.30
2023-03-04T23:48:40.179Z,1.67
2023-03-04T23:51:09.497Z,1.45
2023-03-04T23:53:38.894Z,1.70
2023-03-04T23:56:17.600Z,1.67
2023-03-04T23:58:44.749Z,1.52
